Time;durP1;ratioP1;P1;durP2;ratioP2;P2;SDS_P1;SDS_P2;PMS_P1;PMS_P2;Temp;Humidity;BMP_temperature;BMP_pressure;BME280_temperature;BME280_humidity;BME280_pressure;Samples;Min_cycle;Max_cycle;Signal;HPM_P1;HPM_P2
2023/12/21 00:00:40;;;;;;;15.70;7.18;;;0.70;99.90;;;;;;5049914;28;20189;-83
2023/12/21 00:03:09;;;;;;;12.48;6.60;;;0.70;99.90;;;;;;5048584;28;20193;-84
2023/12/21 00:05:36;;;;;;;12.65;5.57;;;0.70;99.90;;;;;;5048397;28;20774;-84
2023/12/21 00:08:04;;;;;;;11.68;5.78;;;0.60;99.90;;;;;;5049804;28;20689;-85
2023/12/21 00:10:31;;;;;;;9.13;4.97;;;0.60;99.90;;;;;;5049761;28;20223;-86
2023/12/21 00:12:59;;;;;;;10.95;5.20;;;0.60;99.90;;;;;;5050143;28;20561;-86
2023/12/21 00:15:26;;;;;;;9.02;5.05;;;0.70;99.90;;;;;;5049775;28;20181;-83
2023/12/21 00:17:54;;;;;;;10.27;5.45;;;0.60;99.90;;;;;;5063048;28;20263;-84
2023/12/21 00:20:21;;;;;;;9.35;4.65;;;0.60;99.90;;;;;;5068537;28;20260;-84
2023/12/21 00:22:49;;;;;;;8.80;5.05;;;0.60;99.90;;;;;;5064066;28;20201;-83
2023/12/21 00:25:17;;;;;;;16.25;6.32;;;0.60;99.90;;;;;;5049797;28;20185;-86
2023/12/21 00:27:45;;;;;;;9.32;4.90;;;0.60;99.90;;;;;;5049880;28;20205;-85
2023/12/21 00:30:13;;;;;;;12.10;4.88;;;0.60;99.90;;;;;;5049561;28;20181;-84
2023/12/21 00:32:41;;;;;;;11.48;6.00;;;0.60;99.90;;;;;;5048150;28;20232;-83
2023/12/21 00:35:09;;;;;;;11.68;5.43;;;0.60;99.90;;;;;;5048961;28;20188;-85
2023/12/21 00:37:37;;;;;;;24.05;7.10;;;0.60;99.90;;;;;;5051969;28;20189;-85
2023/12/21 00:40:05;;;;;;;12.88;6.10;;;0.60;99.90;;;;;;5068102;28;20298;-85
2023/12/21 00:42:38;;;;;;;16.35;6.90;;;0.60;99.90;;;;;;5069673;28;20184;-86
2023/12/21 00:45:06;;;;;;;17.10;5.57;;;0.60;99.90;;;;;;5069878;28;20177;-85
2023/12/21 00:47:34;;;;;;;25.60;7.43;;;0.60;99.90;;;;;;5053483;28;20670;-83
2023/12/21 00:50:02;;;;;;;16.08;6.45;;;0.60;99.90;;;;;;5049203;28;20235;-84
2023/12/21 00:52:30;;;;;;;16.13;6.15;;;0.60;99.90;;;;;;5047837;28;20288;-83
2023/12/21 00:54:57;;;;;;;11.48;5.97;;;0.60;99.90;;;;;;5048715;28;20546;-86
2023/12/21 00:57:25;;;;;;;49.13;8.38;;;0.60;99.90;;;;;;5074216;28;20185;-86
2023/12/21 00:59:52;;;;;;;18.25;6.75;;;0.60;99.90;;;;;;5049247;28;20189;-85
2023/12/21 01:02:20;;;;;;;54.90;8.70;;;0.70;99.90;;;;;;5049317;28;20651;-86
2023/12/21 01:04:47;;;;;;;25.40;7.88;;;0.70;99.90;;;;;;5049451;28;20225;-84
2023/12/21 01:07:15;;;;;;;55.15;9.85;;;0.70;99.90;;;;;;5049375;28;20547;-84
2023/12/21 01:09:42;;;;;;;18.33;7.10;;;0.70;99.90;;;;;;5049358;28;20239;-83
2023/12/21 01:12:10;;;;;;;15.65;7.65;;;0.70;99.90;;;;;;5049003;28;20254;-84
2023/12/21 01:14:37;;;;;;;18.65;7.43;;;0.70;99.90;;;;;;5049100;28;20193;-85
2023/12/21 01:17:05;;;;;;;19.63;9.52;;;0.70;99.90;;;;;;5048939;28;20259;-85
2023/12/21 01:19:32;;;;;;;24.00;10.10;;;0.70;99.90;;;;;;5049159;28;20575;-84
2023/12/21 01:22:00;;;;;;;22.20;9.52;;;0.80;99.90;;;;;;5049100;28;20188;-84
2023/12/21 01:24:27;;;;;;;21.80;9.38;;;0.80;99.90;;;;;;5049070;28;20619;-85
2023/12/21 01:26:55;;;;;;;17.45;8.68;;;0.80;99.90;;;;;;5049094;28;20551;-85
2023/12/21 01:29:22;;;;;;;19.27;9.60;;;0.80;99.90;;;;;;5062006;28;20197;-85
2023/12/21 01:31:51;;;;;;;22.27;9.93;;;0.80;99.90;;;;;;5068929;28;20204;-86
2023/12/21 01:34:18;;;;;;;18.67;9.95;;;0.80;99.90;;;;;;5071705;28;20181;-85
2023/12/21 01:36:46;;;;;;;18.23;8.82;;;0.80;99.90;;;;;;5072765;28;20176;-85
2023/12/21 01:39:14;;;;;;;20.75;9.60;;;0.90;99.90;;;;;;5072764;28;20228;-87
2023/12/21 01:41:41;;;;;;;22.70;10.77;;;0.80;99.90;;;;;;5072801;28;20192;-85
2023/12/21 01:44:09;;;;;;;19.38;9.77;;;0.80;99.90;;;;;;5072743;28;20185;-85
2023/12/21 01:46:36;;;;;;;23.33;10.98;;;0.90;99.90;;;;;;5071501;28;20185;-83
2023/12/21 01:49:04;;;;;;;25.20;11.27;;;0.90;99.90;;;;;;5072814;28;20193;-84
2023/12/21 01:51:33;;;;;;;21.77;10.70;;;0.90;99.90;;;;;;5073557;28;20205;-87
2023/12/21 01:54:03;;;;;;;21.70;10.35;;;0.90;99.90;;;;;;5072487;28;20204;-84
2023/12/21 01:56:33;;;;;;;24.63;11.35;;;0.90;99.90;;;;;;5072773;28;20200;-84
2023/12/21 01:59:00;;;;;;;23.63;10.88;;;1.00;99.90;;;;;;5072687;28;20996;-86
2023/12/21 02:01:29;;;;;;;20.58;10.27;;;0.90;99.90;;;;;;5070966;28;20227;-83
2023/12/21 02:03:56;;;;;;;24.23;12.00;;;0.90;99.90;;;;;;5065433;28;20681;-84
2023/12/21 02:06:25;;;;;;;24.02;11.35;;;1.00;99.90;;;;;;5052257;28;20181;-85
2023/12/21 02:08:53;;;;;;;19.92;11.23;;;1.00;99.90;;;;;;5034790;28;20934;-85
2023/12/21 02:11:20;;;;;;;23.95;11.23;;;1.00;99.90;;;;;;5070616;28;20233;-85
2023/12/21 02:13:47;;;;;;;24.40;11.27;;;1.00;99.90;;;;;;5070962;28;20189;-86
2023/12/21 02:16:34;;;;;;;22.38;11.10;;;1.00;99.90;;;;;;5067431;28;20535;-86
2023/12/21 02:19:03;;;;;;;23.02;11.07;;;1.10;99.90;;;;;;5052176;28;20918;-86
2023/12/21 02:21:32;;;;;;;23.48;11.80;;;1.00;99.90;;;;;;5050668;28;20224;-84
2023/12/21 02:24:02;;;;;;;24.10;12.15;;;1.00;99.90;;;;;;5067588;28;20721;-85
2023/12/21 02:26:30;;;;;;;28.73;12.13;;;1.10;99.90;;;;;;5050686;28;20181;-85
2023/12/21 02:28:57;;;;;;;23.83;10.88;;;1.00;99.90;;;;;;5056648;28;20200;-86
2023/12/21 02:31:25;;;;;;;22.92;10.68;;;1.00;99.90;;;;;;5070476;28;20938;-85
2023/12/21 02:33:52;;;;;;;20.83;10.65;;;1.00;99.90;;;;;;5054210;28;20578;-85
2023/12/21 02:36:20;;;;;;;20.92;11.48;;;1.00;99.90;;;;;;5072043;28;20177;-85
2023/12/21 02:38:47;;;;;;;27.83;11.95;;;1.00;99.90;;;;;;5071488;28;20705;-86
2023/12/21 02:41:15;;;;;;;20.25;9.98;;;1.00;99.90;;;;;;5070289;28;20266;-85
2023/12/21 02:43:42;;;;;;;22.88;10.85;;;1.00;99.90;;;;;;5071579;28;20197;-85
2023/12/21 02:46:09;;;;;;;22.50;10.88;;;1.10;99.90;;;;;;5070874;28;20563;-86
2023/12/21 02:48:37;;;;;;;19.52;9.70;;;1.00;99.90;;;;;;5071839;28;20197;-86
2023/12/21 02:51:04;;;;;;;20.70;9.80;;;1.00;99.90;;;;;;5071348;28;20239;-84
2023/12/21 02:53:32;;;;;;;18.02;9.25;;;1.00;99.90;;;;;;5070217;28;20184;-85
2023/12/21 02:55:59;;;;;;;19.92;9.30;;;1.00;99.90;;;;;;5071430;28;20188;-86
2023/12/21 02:58:26;;;;;;;17.42;8.50;;;1.00;99.90;;;;;;5071357;28;20259;-85
2023/12/21 03:00:54;;;;;;;17.23;7.88;;;1.00;99.90;;;;;;5071334;28;20185;-85
2023/12/21 03:03:22;;;;;;;18.63;7.93;;;1.00;99.90;;;;;;5071157;28;20189;-87
2023/12/21 03:05:49;;;;;;;19.80;8.82;;;1.00;99.90;;;;;;5070192;28;20311;-86
2023/12/21 03:08:16;;;;;;;16.60;8.38;;;1.00;99.90;;;;;;5071108;28;20181;-84
2023/12/21 03:10:44;;;;;;;15.27;7.63;;;1.00;99.90;;;;;;5070934;28;20185;-85
2023/12/21 03:13:11;;;;;;;14.88;6.53;;;0.90;99.90;;;;;;5070886;28;20229;-86
2023/12/21 03:15:39;;;;;;;17.52;7.90;;;0.90;99.90;;;;;;5070875;28;20177;-85
2023/12/21 03:18:06;;;;;;;15.13;7.32;;;0.90;99.90;;;;;;5067149;28;20752;-84
2023/12/21 03:20:34;;;;;;;19.45;8.20;;;0.90;99.90;;;;;;5051050;28;20301;-85
2023/12/21 03:23:01;;;;;;;20.27;8.27;;;0.90;99.90;;;;;;5061672;28;20196;-84
2023/12/21 03:25:29;;;;;;;14.38;7.07;;;0.90;99.90;;;;;;5070703;28;20185;-86
2023/12/21 03:27:56;;;;;;;14.23;7.18;;;0.90;99.90;;;;;;5070551;28;20302;-83
2023/12/21 03:30:24;;;;;;;16.38;8.13;;;0.90;99.90;;;;;;5070656;28;20223;-85
2023/12/21 03:32:51;;;;;;;18.38;8.38;;;0.90;99.90;;;;;;5068951;28;20230;-87
2023/12/21 03:35:19;;;;;;;14.52;7.60;;;0.90;99.90;;;;;;5070432;28;20631;-85
2023/12/21 03:37:46;;;;;;;17.65;7.90;;;0.90;99.90;;;;;;5070201;28;20670;-86
2023/12/21 03:40:14;;;;;;;14.85;7.80;;;0.90;99.90;;;;;;5069216;28;20228;-87
2023/12/21 03:42:41;;;;;;;13.90;6.28;;;0.90;99.90;;;;;;5066066;28;20251;-85
2023/12/21 03:45:09;;;;;;;16.08;7.28;;;1.00;99.90;;;;;;5050129;28;20189;-85
2023/12/21 03:47:36;;;;;;;16.35;7.07;;;1.00;99.90;;;;;;5068852;28;20259;-84
2023/12/21 03:50:04;;;;;;;12.38;5.78;;;1.00;99.90;;;;;;5068724;28;20200;-86
2023/12/21 03:52:32;;;;;;;15.15;6.90;;;1.00;99.90;;;;;;5068768;28;20594;-87
2023/12/21 03:55:00;;;;;;;13.05;6.00;;;1.00;99.90;;;;;;5068614;28;20663;-86
2023/12/21 03:57:27;;;;;;;16.83;6.88;;;0.90;99.90;;;;;;5068909;28;20208;-86
2023/12/21 03:59:55;;;;;;;13.23;6.47;;;0.90;99.90;;;;;;5069696;28;20185;-84
2023/12/21 04:02:23;;;;;;;11.60;5.07;;;0.80;99.90;;;;;;5068742;28;20187;-85
2023/12/21 04:04:50;;;;;;;9.15;4.28;;;0.80;99.90;;;;;;5069724;28;20220;-85
2023/12/21 04:07:18;;;;;;;9.73;4.53;;;0.80;99.90;;;;;;5056396;28;20201;-85
2023/12/21 04:09:45;;;;;;;8.10;4.30;;;0.80;99.90;;;;;;5048575;28;20291;-84
2023/12/21 04:12:13;;;;;;;9.10;4.68;;;0.80;99.90;;;;;;5048735;28;20570;-86
2023/12/21 04:14:40;;;;;;;8.80;4.03;;;0.70;99.90;;;;;;5048610;28;20259;-84
2023/12/21 04:17:07;;;;;;;8.32;3.58;;;0.80;99.90;;;;;;5051971;28;20276;-85
2023/12/21 04:19:35;;;;;;;8.30;3.22;;;0.80;99.90;;;;;;5068350;28;20181;-84
2023/12/21 04:22:03;;;;;;;4.93;2.53;;;0.70;99.90;;;;;;5069469;28;20189;-83
2023/12/21 04:24:30;;;;;;;3.70;2.00;;;0.70;99.90;;;;;;5068340;28;20242;-83
2023/12/21 04:26:58;;;;;;;3.72;2.00;;;0.70;99.90;;;;;;5069356;28;20854;-84
2023/12/21 04:29:25;;;;;;;2.53;1.30;;;0.70;99.90;;;;;;5068324;28;20322;-83
2023/12/21 04:31:53;;;;;;;3.30;1.42;;;0.70;99.90;;;;;;5058220;28;20205;-85
2023/12/21 04:34:21;;;;;;;2.78;0.88;;;0.60;99.90;;;;;;5049705;28;20173;-84
2023/12/21 04:36:48;;;;;;;1.65;1.08;;;0.50;99.90;;;;;;5052645;28;20561;-85
2023/12/21 04:39:16;;;;;;;1.75;1.00;;;0.50;99.90;;;;;;5069187;28;20221;-83
2023/12/21 04:41:44;;;;;;;0.85;0.75;;;0.50;99.90;;;;;;5068193;28;20207;-85
2023/12/21 04:44:12;;;;;;;1.17;0.65;;;0.40;99.90;;;;;;5068205;28;20234;-85
2023/12/21 04:46:39;;;;;;;1.33;0.45;;;0.40;99.90;;;;;;5051605;28;20193;-84
2023/12/21 04:49:06;;;;;;;0.85;0.50;;;0.30;99.90;;;;;;5065066;28;20212;-86
2023/12/21 04:51:34;;;;;;;0.77;0.40;;;0.20;99.90;;;;;;5049408;28;20263;-84
2023/12/21 04:54:02;;;;;;;2.03;0.50;;;0.20;99.90;;;;;;5049386;28;20186;-84
2023/12/21 04:56:29;;;;;;;0.60;0.38;;;0.20;99.90;;;;;;5054328;28;20188;-84
2023/12/21 04:58:57;;;;;;;0.85;0.60;;;0.20;99.90;;;;;;5059534;28;20275;-85
2023/12/21 05:01:24;;;;;;;0.50;0.32;;;0.20;99.90;;;;;;5063552;28;20250;-84
2023/12/21 05:03:53;;;;;;;0.88;0.50;;;0.20;99.90;;;;;;5065216;28;20584;-85
2023/12/21 05:06:20;;;;;;;0.68;0.38;;;0.20;99.90;;;;;;5048982;28;20192;-85
2023/12/21 05:08:48;;;;;;;0.60;0.30;;;0.20;99.90;;;;;;5062169;28;20195;-84
2023/12/21 05:11:15;;;;;;;0.22;0.13;;;0.10;99.90;;;;;;5071635;28;20677;-85
2023/12/21 05:13:43;;;;;;;0.68;0.40;;;0.10;99.90;;;;;;5073108;28;20208;-84
2023/12/21 05:16:11;;;;;;;0.85;0.43;;;0.10;99.90;;;;;;5072882;28;20184;-85
2023/12/21 05:18:38;;;;;;;0.55;0.30;;;0.10;99.90;;;;;;5065560;28;20289;-83
2023/12/21 05:21:09;;;;;;;0.55;0.30;;;0.10;99.90;;;;;;5053288;28;20181;-85
2023/12/21 05:23:37;;;;;;;0.55;0.30;;;0.10;99.90;;;;;;5055602;28;20197;-85
2023/12/21 05:26:11;;;;;;;1.38;0.57;;;0.10;99.90;;;;;;5068188;28;20208;-84
2023/12/21 05:28:41;;;;;;;0.55;0.38;;;0.10;99.90;;;;;;5051588;28;20268;-86
2023/12/21 05:31:11;;;;;;;1.20;0.50;;;0.10;99.90;;;;;;5052888;28;20574;-84
2023/12/21 05:33:39;;;;;;;0.52;0.43;;;0.10;99.90;;;;;;5051249;28;20282;-85
2023/12/21 05:36:07;;;;;;;1.13;0.47;;;0.10;99.90;;;;;;5052673;28;20213;-83
2023/12/21 05:38:37;;;;;;;1.30;0.70;;;0.10;99.90;;;;;;5052587;28;20240;-83
2023/12/21 05:41:04;;;;;;;2.15;0.90;;;0.10;99.90;;;;;;5052930;28;20185;-83
2023/12/21 05:43:32;;;;;;;1.60;0.70;;;0.10;99.90;;;;;;5063082;28;20189;-85
2023/12/21 05:45:59;;;;;;;5.90;1.40;;;0.10;99.90;;;;;;5072465;28;20263;-86
2023/12/21 05:48:27;;;;;;;4.72;1.67;;;0.10;99.90;;;;;;5072239;28;20192;-83
2023/12/21 05:50:54;;;;;;;5.07;1.85;;;0.10;99.90;;;;;;5072360;28;20183;-83
2023/12/21 05:53:21;;;;;;;6.57;2.47;;;0.10;99.90;;;;;;5072120;28;20299;-85
2023/12/21 05:55:49;;;;;;;10.50;3.90;;;0.10;99.90;;;;;;5072167;28;20192;-82
2023/12/21 05:58:16;;;;;;;13.35;5.40;;;0.10;99.90;;;;;;5072180;28;20259;-84
2023/12/21 06:00:44;;;;;;;14.23;5.00;;;0.10;99.90;;;;;;5072478;28;20180;-85
2023/12/21 06:03:11;;;;;;;11.13;4.85;;;0.10;99.90;;;;;;5072493;28;20716;-85
2023/12/21 06:05:39;;;;;;;14.80;6.10;;;0.10;99.90;;;;;;5072208;28;20204;-82
2023/12/21 06:08:06;;;;;;;16.55;7.13;;;0.10;99.90;;;;;;5072008;28;20789;-86
2023/12/21 06:10:34;;;;;;;14.77;7.10;;;0.10;99.90;;;;;;5071965;28;20218;-85
2023/12/21 06:13:01;;;;;;;18.10;7.25;;;0.10;99.90;;;;;;5071793;28;20207;-85
2023/12/21 06:15:29;;;;;;;19.20;7.55;;;0.20;99.90;;;;;;5071847;28;20191;-84
2023/12/21 06:17:56;;;;;;;21.33;8.30;;;0.20;99.90;;;;;;5071612;28;20189;-85
2023/12/21 06:20:23;;;;;;;21.05;7.80;;;0.10;99.90;;;;;;5070954;28;20187;-83
2023/12/21 06:22:51;;;;;;;24.38;9.13;;;0.20;99.90;;;;;;5071806;28;20185;-85
2023/12/21 06:25:19;;;;;;;23.15;8.65;;;0.20;99.90;;;;;;5071726;28;20192;-84
2023/12/21 06:27:47;;;;;;;29.30;11.13;;;0.20;99.90;;;;;;5071478;28;20185;-84
2023/12/21 06:30:14;;;;;;;27.85;11.15;;;0.20;99.90;;;;;;5052866;28;20197;-85
2023/12/21 06:32:41;;;;;;;26.77;11.43;;;0.20;99.90;;;;;;5050206;28;20667;-85
2023/12/21 06:35:09;;;;;;;28.65;12.48;;;0.20;99.90;;;;;;5050380;28;20200;-84
2023/12/21 06:37:37;;;;;;;28.88;11.18;;;0.20;99.90;;;;;;5050418;28;20181;-86
2023/12/21 06:40:05;;;;;;;34.42;13.48;;;0.20;99.90;;;;;;5051506;28;20231;-84
2023/12/21 06:42:34;;;;;;;27.15;12.40;;;0.20;99.90;;;;;;5050103;28;20219;-86
2023/12/21 06:45:02;;;;;;;26.80;11.70;;;0.20;99.90;;;;;;5049840;28;20563;-83
2023/12/21 06:47:29;;;;;;;23.52;10.75;;;0.20;99.90;;;;;;5049940;28;20204;-86
2023/12/21 06:49:56;;;;;;;30.98;11.90;;;0.30;99.90;;;;;;5051285;28;20563;-86
2023/12/21 06:52:24;;;;;;;31.92;13.25;;;0.20;99.90;;;;;;5050940;28;20216;-85
2023/12/21 06:54:52;;;;;;;29.88;12.85;;;0.20;99.90;;;;;;5051063;28;20178;-85
2023/12/21 06:57:19;;;;;;;27.20;10.95;;;0.20;99.90;;;;;;5051064;28;20185;-84
2023/12/21 06:59:47;;;;;;;26.77;10.50;;;0.20;99.90;;;;;;5051044;28;20185;-85
2023/12/21 07:02:14;;;;;;;29.52;12.55;;;0.20;99.90;;;;;;5050977;28;20181;-84
2023/12/21 07:04:42;;;;;;;30.08;11.50;;;0.20;99.90;;;;;;5049517;28;20268;-86
2023/12/21 07:07:09;;;;;;;25.33;10.80;;;0.20;99.90;;;;;;5050807;28;20181;-85
2023/12/21 07:09:37;;;;;;;26.08;10.60;;;0.20;99.90;;;;;;5066103;28;20193;-85
2023/12/21 07:12:05;;;;;;;25.15;10.90;;;0.30;99.90;;;;;;5050618;28;20639;-84
2023/12/21 07:14:33;;;;;;;25.80;11.00;;;0.20;99.90;;;;;;5050644;28;20643;-82
2023/12/21 07:17:00;;;;;;;30.50;12.13;;;0.20;99.90;;;;;;5049472;28;20663;-81
2023/12/21 07:19:28;;;;;;;24.67;11.88;;;0.30;99.90;;;;;;5049653;28;20666;-86
2023/12/21 07:21:55;;;;;;;25.25;10.77;;;0.20;99.90;;;;;;5050096;28;20201;-82
2023/12/21 07:24:23;;;;;;;29.33;11.80;;;0.30;99.90;;;;;;5065977;28;20200;-86
2023/12/21 07:26:50;;;;;;;28.30;11.20;;;0.20;99.90;;;;;;5033045;28;20197;-86
2023/12/21 07:29:18;;;;;;;22.75;10.25;;;0.30;99.90;;;;;;5049209;28;20200;-85
2023/12/21 07:31:45;;;;;;;25.73;10.65;;;0.20;99.90;;;;;;5048987;28;21012;-84
2023/12/21 07:34:13;;;;;;;25.17;10.15;;;0.20;99.90;;;;;;5050551;28;20295;-84
2023/12/21 07:36:41;;;;;;;28.15;10.65;;;0.30;99.90;;;;;;5050459;28;20177;-86
2023/12/21 07:39:08;;;;;;;26.83;11.02;;;0.30;99.90;;;;;;5058349;28;20227;-85
2023/12/21 07:41:35;;;;;;;27.70;11.88;;;0.30;99.90;;;;;;5070423;28;20177;-84
2023/12/21 07:44:03;;;;;;;23.95;9.52;;;0.30;99.90;;;;;;5071683;28;20261;-84
2023/12/21 07:46:31;;;;;;;27.48;11.00;;;0.30;99.90;;;;;;5070509;28;20199;-84
2023/12/21 07:48:59;;;;;;;24.02;9.82;;;0.30;99.90;;;;;;5070050;28;20180;-86
2023/12/21 07:51:26;;;;;;;24.48;8.80;;;0.30;99.90;;;;;;5069898;28;20180;-84
2023/12/21 07:53:54;;;;;;;23.58;9.02;;;0.30;99.90;;;;;;5068431;28;20204;-84
2023/12/21 07:56:21;;;;;;;21.10;8.07;;;0.20;99.90;;;;;;5068378;28;20177;-83
2023/12/21 07:58:49;;;;;;;25.45;9.52;;;0.20;99.90;;;;;;5067875;28;20612;-85
2023/12/21 08:01:17;;;;;;;21.95;7.68;;;0.30;99.90;;;;;;5068214;28;20204;-84
2023/12/21 08:03:44;;;;;;;18.73;7.53;;;0.20;99.90;;;;;;5069688;28;20188;-85
2023/12/21 08:06:21;;;;;;;20.25;8.15;;;0.20;99.90;;;;;;5091139;28;20663;-83
2023/12/21 08:08:52;;;;;;;21.23;8.15;;;0.20;99.90;;;;;;5069605;28;20169;-85
2023/12/21 08:11:24;;;;;;;19.42;8.35;;;0.20;99.90;;;;;;5068168;28;20181;-83
2023/12/21 08:13:56;;;;;;;21.85;9.30;;;0.30;99.90;;;;;;5069326;28;20215;-84
2023/12/21 08:16:23;;;;;;;19.45;7.82;;;0.30;99.90;;;;;;5068132;28;20184;-85
2023/12/21 08:18:51;;;;;;;24.25;9.35;;;0.30;99.90;;;;;;5068233;28;20192;-84
2023/12/21 08:21:18;;;;;;;26.83;8.95;;;0.30;99.90;;;;;;5064581;28;20275;-86
2023/12/21 08:23:46;;;;;;;26.38;9.60;;;0.30;99.90;;;;;;5049700;28;20187;-84
2023/12/21 08:26:13;;;;;;;24.35;9.27;;;0.30;99.90;;;;;;5060916;28;20200;-85
2023/12/21 08:28:41;;;;;;;23.73;9.68;;;0.30;99.90;;;;;;5069419;28;20204;-85
2023/12/21 08:31:09;;;;;;;28.80;12.02;;;0.30;99.90;;;;;;5067665;28;20191;-85
2023/12/21 08:33:37;;;;;;;23.40;10.02;;;0.30;99.90;;;;;;5069579;28;20204;-84
2023/12/21 08:36:06;;;;;;;29.45;11.20;;;0.30;99.90;;;;;;5068056;28;20455;-86
2023/12/21 08:38:33;;;;;;;25.58;10.18;;;0.30;99.90;;;;;;5069109;28;20224;-85
2023/12/21 08:41:02;;;;;;;27.40;10.88;;;0.30;99.90;;;;;;5069405;28;20188;-84
2023/12/21 08:43:32;;;;;;;34.03;11.70;;;0.30;99.90;;;;;;5068572;28;20188;-86
2023/12/21 08:46:00;;;;;;;27.40;10.23;;;0.30;99.90;;;;;;5069689;28;20646;-85
2023/12/21 08:48:28;;;;;;;27.73;9.23;;;0.30;99.90;;;;;;5069243;28;20195;-85
2023/12/21 08:50:55;;;;;;;29.70;9.70;;;0.30;99.90;;;;;;5067795;28;20184;-85
2023/12/21 08:53:23;;;;;;;23.80;9.25;;;0.30;99.90;;;;;;5067886;28;20204;-85
2023/12/21 08:55:50;;;;;;;27.45;10.45;;;0.30;99.90;;;;;;5069011;28;20279;-82
2023/12/21 08:58:18;;;;;;;22.83;8.88;;;0.30;99.90;;;;;;5069314;28;20188;-84
2023/12/21 09:00:46;;;;;;;27.08;10.43;;;0.30;99.90;;;;;;5069203;28;20242;-84
2023/12/21 09:03:13;;;;;;;25.60;9.43;;;0.30;99.90;;;;;;5069216;28;20189;-84
2023/12/21 09:05:41;;;;;;;22.55;9.60;;;0.30;99.90;;;;;;5101619;28;20648;-85
2023/12/21 09:08:08;;;;;;;27.90;9.45;;;0.30;99.90;;;;;;5054236;28;20967;-83
2023/12/21 09:10:36;;;;;;;26.88;10.55;;;0.30;99.90;;;;;;5069155;28;20267;-85
2023/12/21 09:13:03;;;;;;;23.90;9.30;;;0.30;99.90;;;;;;5068806;28;20214;-85
2023/12/21 09:15:31;;;;;;;28.77;11.40;;;0.30;99.90;;;;;;5071592;28;20200;-84
2023/12/21 09:17:59;;;;;;;24.67;10.18;;;0.30;99.90;;;;;;5087879;28;20229;-86
2023/12/21 09:20:26;;;;;;;25.95;9.48;;;0.30;99.90;;;;;;5089360;28;20241;-86
2023/12/21 09:22:54;;;;;;;25.77;9.85;;;0.30;99.90;;;;;;5087430;28;20184;-86
2023/12/21 09:25:22;;;;;;;25.70;10.52;;;0.30;99.90;;;;;;5088809;28;20191;-87
2023/12/21 09:27:49;;;;;;;26.50;9.55;;;0.30;99.90;;;;;;5088332;28;20184;-86
2023/12/21 09:30:19;;;;;;;27.05;10.57;;;0.30;99.90;;;;;;5071064;28;20189;-85
2023/12/21 09:32:46;;;;;;;26.38;10.15;;;0.30;99.90;;;;;;5050461;28;20325;-85
2023/12/21 09:35:17;;;;;;;24.88;9.32;;;0.30;99.90;;;;;;5068658;28;20224;-84
2023/12/21 09:37:45;;;;;;;25.30;10.75;;;0.40;99.90;;;;;;5068492;28;20213;-83
2023/12/21 09:40:13;;;;;;;20.65;8.90;;;0.30;99.90;;;;;;5067210;28;20203;-83
2023/12/21 09:42:48;;;;;;;22.75;10.48;;;0.40;99.90;;;;;;5068570;28;20289;-84
2023/12/21 09:45:31;;;;;;;25.02;9.88;;;0.30;99.90;;;;;;5068868;28;20609;-86
2023/12/21 09:47:59;;;;;;;25.00;9.38;;;0.30;99.90;;;;;;5068953;28;20267;-86
2023/12/21 09:50:28;;;;;;;23.52;9.90;;;0.30;99.90;;;;;;5050902;28;20199;-86
2023/12/21 09:52:59;;;;;;;25.70;8.68;;;0.30;99.90;;;;;;5068359;28;20187;-85
2023/12/21 09:55:30;;;;;;;23.92;9.02;;;0.40;99.90;;;;;;5071485;28;20188;-86
2023/12/21 09:57:59;;;;;;;29.23;9.68;;;0.30;99.90;;;;;;5071952;28;20165;-84
2023/12/21 10:00:29;;;;;;;28.30;10.98;;;0.30;99.90;;;;;;5072322;28;20196;-85
2023/12/21 10:02:57;;;;;;;25.23;10.27;;;0.40;99.90;;;;;;5072160;28;20184;-85
2023/12/21 10:05:25;;;;;;;30.92;10.20;;;0.30;99.90;;;;;;5072138;28;20184;-85
2023/12/21 10:07:52;;;;;;;25.70;9.45;;;0.30;99.90;;;;;;5071690;28;20268;-85
2023/12/21 10:10:20;;;;;;;30.70;10.57;;;0.30;99.90;;;;;;5072022;28;21005;-87
2023/12/21 10:12:48;;;;;;;24.33;9.35;;;0.30;99.90;;;;;;5071882;28;20679;-86
2023/12/21 10:15:18;;;;;;;27.50;10.88;;;0.30;99.90;;;;;;5072268;28;20631;-86
2023/12/21 10:17:47;;;;;;;29.90;10.18;;;0.30;99.90;;;;;;5071962;28;20244;-87
2023/12/21 10:20:14;;;;;;;25.40;10.43;;;0.30;99.90;;;;;;5071739;28;20185;-86
2023/12/21 10:22:43;;;;;;;26.92;10.68;;;0.30;99.90;;;;;;5071684;28;20192;-85
2023/12/21 10:25:12;;;;;;;29.45;9.50;;;0.30;99.90;;;;;;5070383;28;20231;-86
2023/12/21 10:27:51;;;;;;;24.98;10.13;;;0.30;99.90;;;;;;5071734;28;20203;-84
2023/12/21 10:30:22;;;;;;;30.58;10.23;;;0.30;99.90;;;;;;5071919;28;20175;-84
2023/12/21 10:32:57;;;;;;;28.77;9.80;;;0.30;99.90;;;;;;5072110;28;20204;-84
2023/12/21 10:35:26;;;;;;;25.02;9.80;;;0.30;99.90;;;;;;5070547;28;20223;-83
2023/12/21 10:37:54;;;;;;;28.88;10.20;;;0.40;99.90;;;;;;5070945;28;20261;-86
2023/12/21 10:40:22;;;;;;;28.33;10.45;;;0.30;99.90;;;;;;5069904;28;20211;-85
2023/12/21 10:42:53;;;;;;;27.50;9.88;;;0.40;99.90;;;;;;5070560;28;20188;-87
2023/12/21 10:45:22;;;;;;;29.58;10.07;;;0.30;99.90;;;;;;5072027;28;20181;-86
2023/12/21 10:48:08;;;;;;;23.58;10.00;;;0.30;99.90;;;;;;5070142;28;20192;-84
2023/12/21 10:50:37;;;;;;;33.00;10.75;;;0.40;99.90;;;;;;5071180;28;20188;-84
2023/12/21 10:53:09;;;;;;;25.02;10.50;;;0.40;99.90;;;;;;5069938;28;20644;-84
2023/12/21 10:55:38;;;;;;;30.20;10.45;;;0.30;99.90;;;;;;5070134;28;20189;-86
2023/12/21 10:58:06;;;;;;;26.52;11.10;;;0.30;99.90;;;;;;5071161;28;20173;-85
2023/12/21 11:00:34;;;;;;;23.02;8.88;;;0.30;99.90;;;;;;5069648;28;20250;-84
2023/12/21 11:03:06;;;;;;;25.20;9.23;;;0.30;99.90;;;;;;5066522;28;20196;-86
2023/12/21 11:05:35;;;;;;;26.63;9.82;;;0.30;99.90;;;;;;5050389;28;20165;-83
2023/12/21 11:08:03;;;;;;;27.88;8.77;;;0.30;99.90;;;;;;5050896;28;20671;-86
2023/12/21 11:10:33;;;;;;;25.08;9.52;;;0.30;99.90;;;;;;5050858;28;20280;-83
2023/12/21 11:13:01;;;;;;;27.73;9.05;;;0.30;99.90;;;;;;5049504;28;20189;-85
2023/12/21 11:15:30;;;;;;;26.55;8.60;;;0.30;99.90;;;;;;5051132;28;20217;-85
2023/12/21 11:18:11;;;;;;;25.30;9.75;;;0.30;99.90;;;;;;5050895;28;20182;-84
2023/12/21 11:20:50;;;;;;;26.33;9.23;;;0.30;99.90;;;;;;5049599;28;20165;-87
2023/12/21 11:23:21;;;;;;;27.15;9.90;;;0.30;99.90;;;;;;5082815;28;20296;-85
2023/12/21 11:25:59;;;;;;;27.08;9.77;;;0.30;99.90;;;;;;5050705;28;20178;-86
2023/12/21 11:28:31;;;;;;;23.52;8.52;;;0.30;99.90;;;;;;5050435;28;20165;-85
2023/12/21 11:30:58;;;;;;;23.23;8.70;;;0.30;99.90;;;;;;5050400;28;20173;-84
2023/12/21 11:33:30;;;;;;;26.73;9.35;;;0.30;99.90;;;;;;5050373;28;20185;-86
2023/12/21 11:35:58;;;;;;;27.55;9.52;;;0.30;99.90;;;;;;5049219;28;20501;-86
2023/12/21 11:38:48;;;;;;;26.52;10.68;;;0.30;99.90;;;;;;5065749;28;20658;-86
2023/12/21 11:41:23;;;;;;;23.02;9.45;;;0.30;99.90;;;;;;5049043;28;20217;-85
2023/12/21 11:44:12;;;;;;;25.40;9.30;;;0.30;99.90;;;;;;5050502;28;20181;-87
2023/12/21 11:46:41;;;;;;;23.80;9.60;;;0.30;99.90;;;;;;5050539;28;20242;-84
2023/12/21 11:49:26;;;;;;;25.25;9.75;;;0.20;99.90;;;;;;5048708;28;20185;-85
2023/12/21 11:51:53;;;;;;;25.38;9.48;;;0.20;99.90;;;;;;5049876;28;20994;-86
2023/12/21 11:54:22;;;;;;;23.38;9.07;;;0.20;99.90;;;;;;5049975;28;20198;-85
2023/12/21 11:56:51;;;;;;;25.10;9.68;;;0.20;99.90;;;;;;5050105;28;20185;-84
2023/12/21 11:59:23;;;;;;;21.25;9.13;;;0.20;99.90;;;;;;5049963;28;20185;-86
2023/12/21 12:01:51;;;;;;;24.05;9.05;;;0.20;99.90;;;;;;5048938;28;20255;-84
2023/12/21 12:04:19;;;;;;;22.85;8.02;;;0.20;99.90;;;;;;5050197;28;20209;-85
2023/12/21 12:06:47;;;;;;;22.77;8.63;;;0.20;99.90;;;;;;5049152;28;20193;-86
2023/12/21 12:09:15;;;;;;;20.27;8.43;;;0.20;99.90;;;;;;5049188;28;20633;-84
2023/12/21 12:11:45;;;;;;;23.27;8.15;;;0.20;99.90;;;;;;5048838;28;20188;-87
2023/12/21 12:14:13;;;;;;;27.88;8.98;;;0.30;99.90;;;;;;5048584;28;20271;-86
2023/12/21 12:16:40;;;;;;;22.88;7.50;;;0.30;99.90;;;;;;5049647;28;20192;-81
2023/12/21 12:19:11;;;;;;;29.02;9.43;;;0.20;99.90;;;;;;5049088;28;20713;-85
2023/12/21 12:21:39;;;;;;;20.35;8.48;;;0.20;99.90;;;;;;5051248;28;20283;-86
2023/12/21 12:24:07;;;;;;;22.42;8.40;;;0.20;99.90;;;;;;5056837;28;20192;-85
2023/12/21 12:26:34;;;;;;;23.38;9.30;;;0.20;99.90;;;;;;5057901;28;20204;-87
2023/12/21 12:29:02;;;;;;;19.13;7.05;;;0.20;99.90;;;;;;5052930;28;20200;-86
2023/12/21 12:31:30;;;;;;;20.70;7.35;;;0.20;99.90;;;;;;5049246;28;20196;-87
2023/12/21 12:33:57;;;;;;;22.67;8.38;;;0.20;99.90;;;;;;5049220;28;20283;-87
2023/12/21 12:36:25;;;;;;;23.80;9.15;;;0.20;99.90;;;;;;5049290;28;20227;-83
2023/12/21 12:38:54;;;;;;;22.92;8.23;;;0.20;99.90;;;;;;5050537;28;20725;-85
2023/12/21 12:41:24;;;;;;;26.98;9.30;;;0.20;99.90;;;;;;5050219;28;20166;-86
2023/12/21 12:43:52;;;;;;;23.52;8.32;;;0.20;99.90;;;;;;5050465;28;20189;-87
2023/12/21 12:46:20;;;;;;;23.85;8.18;;;0.20;99.90;;;;;;5050667;28;20185;-84
2023/12/21 12:48:49;;;;;;;21.67;8.70;;;0.20;99.90;;;;;;5050468;28;20554;-86
2023/12/21 12:51:17;;;;;;;31.33;9.70;;;0.20;99.90;;;;;;5050179;28;20685;-87